Time;durP1;ratioP1;P1;durP2;ratioP2;P2;SDS_P1;SDS_P2;PMS_P1;PMS_P2;Temp;Humidity;BMP_temperature;BMP_pressure;BME280_temperature;BME280_humidity;BME280_pressure;Samples;Min_cycle;Max_cycle;Signal;HPM_P1;HPM_P2
2024/02/02 00:02:06;;;;;;;34.78;24.15;;;;;;;;;;5083549;28;20025;-60
2024/02/02 00:04:33;;;;;;;31.20;24.80;;;;;;;;;;5085615;28;20086;-61
2024/02/02 00:06:59;;;;;;;32.58;25.27;;;;;;;;;;5086870;28;20050;-61
2024/02/02 00:09:26;;;;;;;33.00;24.88;;;;;;;;;;5087156;28;20025;-61
2024/02/02 00:11:52;;;;;;;27.80;23.65;;;;;;;;;;5086813;28;20017;-61
2024/02/02 00:14:19;;;;;;;28.30;23.42;;;;;;;;;;5087064;28;20051;-60
2024/02/02 00:16:46;;;;;;;32.95;26.00;;;;;;;;;;5086534;28;20024;-61
2024/02/02 00:19:12;;;;;;;34.60;27.75;;;;;;;;;;5086947;28;20062;-60
2024/02/02 00:21:39;;;;;;;43.80;29.13;;;;;;;;;;5086629;28;20051;-61
2024/02/02 00:24:05;;;;;;;34.50;28.05;;;;;;;;;;5086774;28;20025;-59
2024/02/02 00:26:32;;;;;;;35.60;27.50;;;;;;;;;;5086575;28;20317;-60
2024/02/02 00:28:59;;;;;;;38.22;26.98;;;;;;;;;;5086747;28;20205;-59
2024/02/02 00:31:25;;;;;;;34.55;25.70;;;;;;;;;;5086315;28;20026;-61
2024/02/02 00:33:52;;;;;;;29.48;23.95;;;;;;;;;;5086703;28;20020;-59
2024/02/02 00:36:18;;;;;;;28.30;23.45;;;;;;;;;;5086371;28;20021;-59
2024/02/02 00:38:45;;;;;;;31.27;22.80;;;;;;;;;;5086786;28;20021;-59
2024/02/02 00:41:11;;;;;;;28.35;21.65;;;;;;;;;;5086260;28;20016;-59
2024/02/02 00:43:38;;;;;;;29.60;21.75;;;;;;;;;;5086170;28;20104;-59
2024/02/02 00:46:05;;;;;;;28.20;20.85;;;;;;;;;;5086315;28;20020;-60
2024/02/02 00:48:33;;;;;;;28.48;20.85;;;;;;;;;;5086291;28;20016;-60
2024/02/02 00:51:01;;;;;;;23.58;18.67;;;;;;;;;;5085942;28;20024;-59
2024/02/02 00:53:28;;;;;;;24.92;18.45;;;;;;;;;;5086410;28;20342;-60
2024/02/02 00:55:54;;;;;;;24.95;17.73;;;;;;;;;;5085859;28;20213;-61
2024/02/02 00:58:21;;;;;;;23.58;17.95;;;;;;;;;;5086073;28;20082;-68
2024/02/02 01:00:47;;;;;;;20.15;15.15;;;;;;;;;;5073026;28;20028;-68
2024/02/02 01:03:14;;;;;;;21.38;15.27;;;;;;;;;;5069711;28;20213;-68
2024/02/02 01:05:41;;;;;;;19.58;15.90;;;;;;;;;;5065775;28;20028;-68
2024/02/02 01:08:07;;;;;;;23.10;15.82;;;;;;;;;;5071496;28;20016;-67
2024/02/02 01:10:34;;;;;;;23.05;15.70;;;;;;;;;;5083751;28;20340;-67
2024/02/02 01:13:00;;;;;;;23.02;15.82;;;;;;;;;;5083669;28;20353;-65
2024/02/02 01:15:27;;;;;;;20.25;14.45;;;;;;;;;;5080409;28;20343;-69
2024/02/02 01:17:54;;;;;;;20.73;15.65;;;;;;;;;;5079208;28;20033;-68
2024/02/02 01:20:21;;;;;;;23.23;16.40;;;;;;;;;;5082998;28;20393;-68
2024/02/02 01:22:48;;;;;;;22.40;16.40;;;;;;;;;;5085130;28;20131;-68
2024/02/02 01:25:14;;;;;;;23.25;16.48;;;;;;;;;;5084958;28;20259;-67
2024/02/02 01:27:41;;;;;;;22.27;15.65;;;;;;;;;;5082319;28;20327;-66
2024/02/02 01:30:11;;;;;;;19.67;14.30;;;;;;;;;;5082403;28;20142;-67
2024/02/02 01:32:38;;;;;;;19.58;14.07;;;;;;;;;;5084868;28;20073;-67
2024/02/02 01:35:05;;;;;;;19.08;14.30;;;;;;;;;;5082248;28;20023;-68
2024/02/02 01:37:32;;;;;;;17.35;13.05;;;;;;;;;;5084784;28;20012;-67
2024/02/02 01:39:58;;;;;;;19.42;13.13;;;;;;;;;;5084434;28;20028;-67
2024/02/02 01:42:25;;;;;;;19.83;13.18;;;;;;;;;;5084644;28;20024;-67
2024/02/02 01:44:52;;;;;;;26.13;13.93;;;;;;;;;;5082675;28;20044;-66
2024/02/02 01:47:18;;;;;;;18.55;13.05;;;;;;;;;;5083123;28;20032;-66
2024/02/02 01:49:45;;;;;;;19.88;13.68;;;;;;;;;;5084499;28;20016;-66
2024/02/02 01:52:11;;;;;;;20.05;13.38;;;;;;;;;;5084354;28;20067;-67
2024/02/02 01:54:38;;;;;;;19.27;12.57;;;;;;;;;;5082735;28;20096;-67
2024/02/02 01:57:05;;;;;;;22.67;12.95;;;;;;;;;;5084705;28;20033;-67
2024/02/02 01:59:31;;;;;;;18.73;13.45;;;;;;;;;;5076863;28;20020;-67
2024/02/02 02:01:59;;;;;;;20.95;12.85;;;;;;;;;;5072663;28;20025;-68
2024/02/02 02:04:25;;;;;;;20.45;13.02;;;;;;;;;;5072544;28;20025;-68
2024/02/02 02:06:52;;;;;;;21.05;13.25;;;;;;;;;;5073909;28;20028;-66
2024/02/02 02:09:18;;;;;;;21.20;13.27;;;;;;;;;;5080010;28;20036;-65
2024/02/02 02:11:45;;;;;;;21.90;12.70;;;;;;;;;;5083210;28;20020;-68
2024/02/02 02:14:12;;;;;;;19.25;12.60;;;;;;;;;;5084793;28;20308;-67
2024/02/02 02:16:38;;;;;;;20.25;12.50;;;;;;;;;;5081801;28;20028;-67
2024/02/02 02:19:05;;;;;;;18.40;12.80;;;;;;;;;;5083761;28;20331;-67
2024/02/02 02:21:32;;;;;;;17.90;13.15;;;;;;;;;;5079065;28;20346;-67
2024/02/02 02:23:58;;;;;;;20.42;12.70;;;;;;;;;;5082232;28;20233;-66
2024/02/02 02:26:29;;;;;;;20.02;12.85;;;;;;;;;;5083465;28;20212;-65
2024/02/02 02:28:56;;;;;;;19.60;12.25;;;;;;;;;;5080908;28;20051;-65
2024/02/02 02:31:23;;;;;;;17.25;12.57;;;;;;;;;;5078603;28;20017;-66
2024/02/02 02:33:50;;;;;;;19.15;13.00;;;;;;;;;;5084105;28;20016;-66
2024/02/02 02:36:16;;;;;;;17.33;12.80;;;;;;;;;;5083424;28;20338;-67
2024/02/02 02:38:44;;;;;;;18.98;12.20;;;;;;;;;;5081704;28;20213;-67
2024/02/02 02:41:10;;;;;;;17.30;12.30;;;;;;;;;;5077000;28;20312;-67
2024/02/02 02:43:37;;;;;;;19.73;11.98;;;;;;;;;;5082798;28;20256;-67
2024/02/02 02:46:04;;;;;;;15.48;11.13;;;;;;;;;;5083699;28;20084;-66
2024/02/02 02:48:33;;;;;;;16.38;11.15;;;;;;;;;;5081800;28;20041;-67
2024/02/02 02:51:00;;;;;;;21.83;11.85;;;;;;;;;;5083156;28;20312;-66
2024/02/02 02:53:26;;;;;;;19.08;11.55;;;;;;;;;;5083774;28;20025;-67
2024/02/02 02:55:53;;;;;;;18.63;10.70;;;;;;;;;;5083630;28;20024;-67
2024/02/02 02:58:20;;;;;;;18.08;11.20;;;;;;;;;;5080275;28;20087;-66
2024/02/02 03:00:46;;;;;;;18.27;11.07;;;;;;;;;;5081127;28;20047;-67
2024/02/02 03:03:13;;;;;;;17.23;11.32;;;;;;;;;;5079012;28;20243;-67
2024/02/02 03:05:40;;;;;;;19.63;11.30;;;;;;;;;;5079504;28;20063;-68
2024/02/02 03:08:07;;;;;;;18.60;10.52;;;;;;;;;;5082497;28;20017;-68
2024/02/02 03:10:34;;;;;;;14.95;10.55;;;;;;;;;;5078274;28;20079;-67
2024/02/02 03:13:00;;;;;;;19.63;11.52;;;;;;;;;;5083624;28;20035;-66
2024/02/02 03:15:31;;;;;;;19.40;11.18;;;;;;;;;;5083394;28;20060;-67
2024/02/02 03:17:58;;;;;;;17.60;10.88;;;;;;;;;;5082094;28;20205;-67
2024/02/02 03:20:27;;;;;;;19.85;11.18;;;;;;;;;;5078526;28;20019;-66
2024/02/02 03:22:54;;;;;;;17.02;10.18;;;;;;;;;;5083239;28;20024;-68
2024/02/02 03:25:21;;;;;;;17.90;11.10;;;;;;;;;;5083293;28;20070;-66
2024/02/02 03:27:47;;;;;;;22.95;11.75;;;;;;;;;;5083535;28;20032;-68
2024/02/02 03:30:14;;;;;;;18.70;11.27;;;;;;;;;;5078369;28;20016;-67
2024/02/02 03:32:41;;;;;;;19.73;10.95;;;;;;;;;;5081241;28;20032;-68
2024/02/02 03:35:08;;;;;;;17.50;10.95;;;;;;;;;;5083048;28;20028;-66
2024/02/02 03:37:34;;;;;;;19.42;11.40;;;;;;;;;;5079858;28;20028;-66
2024/02/02 03:40:01;;;;;;;22.50;11.68;;;;;;;;;;5082359;28;20031;-66
2024/02/02 03:42:27;;;;;;;17.70;11.15;;;;;;;;;;5084479;28;20016;-68
2024/02/02 03:44:54;;;;;;;18.05;10.98;;;;;;;;;;5080483;28;20033;-66
2024/02/02 03:47:21;;;;;;;15.13;11.02;;;;;;;;;;5082765;28;20024;-65
2024/02/02 03:49:48;;;;;;;14.48;10.30;;;;;;;;;;5082594;28;20020;-66
2024/02/02 03:52:14;;;;;;;17.42;11.13;;;;;;;;;;5083230;28;20196;-67
2024/02/02 03:54:41;;;;;;;19.23;11.95;;;;;;;;;;5083716;28;20032;-67
2024/02/02 03:57:07;;;;;;;17.92;11.18;;;;;;;;;;5082803;28;20079;-67
2024/02/02 03:59:34;;;;;;;16.92;11.90;;;;;;;;;;5085569;28;20025;-67
2024/02/02 04:02:01;;;;;;;18.67;12.73;;;;;;;;;;5081932;28;20019;-67
2024/02/02 04:04:27;;;;;;;17.08;11.43;;;;;;;;;;5087004;28;20084;-67
2024/02/02 04:06:54;;;;;;;17.10;12.50;;;;;;;;;;5084992;28;20021;-66
2024/02/02 04:09:20;;;;;;;20.95;12.55;;;;;;;;;;5083818;28;20017;-68
2024/02/02 04:11:47;;;;;;;18.33;12.52;;;;;;;;;;5084289;28;20020;-69
2024/02/02 04:14:13;;;;;;;14.85;12.38;;;;;;;;;;5073104;28;20029;-66
2024/02/02 04:16:40;;;;;;;18.73;11.95;;;;;;;;;;5078405;28;20020;-62
2024/02/02 04:19:14;;;;;;;14.52;11.77;;;;;;;;;;5085081;28;20040;-60
2024/02/02 04:21:41;;;;;;;16.30;12.85;;;;;;;;;;5083176;28;20074;-62
2024/02/02 04:24:08;;;;;;;18.35;11.90;;;;;;;;;;5080871;28;20051;-62
2024/02/02 04:26:34;;;;;;;17.73;12.82;;;;;;;;;;5086358;28;20235;-62
2024/02/02 04:29:01;;;;;;;14.15;11.70;;;;;;;;;;5085686;28;20043;-66
2024/02/02 04:31:28;;;;;;;17.55;12.20;;;;;;;;;;5085994;28;20061;-61
2024/02/02 04:33:54;;;;;;;22.13;11.98;;;;;;;;;;5086781;28;20028;-65
2024/02/02 04:36:21;;;;;;;15.65;11.80;;;;;;;;;;5084951;28;20020;-63
2024/02/02 04:38:47;;;;;;;17.15;11.50;;;;;;;;;;5085897;28;20020;-62
2024/02/02 04:41:14;;;;;;;15.00;11.77;;;;;;;;;;5085204;28;20024;-63
2024/02/02 04:43:41;;;;;;;14.93;11.68;;;;;;;;;;5085053;28;20045;-64
2024/02/02 04:46:07;;;;;;;15.70;11.73;;;;;;;;;;5083907;28;20029;-63
2024/02/02 04:48:34;;;;;;;15.52;11.05;;;;;;;;;;5085224;28;20039;-66
2024/02/02 04:51:00;;;;;;;15.25;11.23;;;;;;;;;;5079836;28;20016;-65
2024/02/02 04:53:27;;;;;;;16.52;11.85;;;;;;;;;;5084886;28;20062;-62
2024/02/02 04:55:54;;;;;;;13.70;11.48;;;;;;;;;;5083160;28;20020;-61
2024/02/02 04:58:20;;;;;;;14.93;11.18;;;;;;;;;;5085796;28;20020;-61
2024/02/02 05:00:47;;;;;;;16.40;11.93;;;;;;;;;;5085464;28;20025;-63
2024/02/02 05:03:13;;;;;;;19.08;12.10;;;;;;;;;;5083118;28;20021;-61
2024/02/02 05:05:40;;;;;;;18.45;11.57;;;;;;;;;;5085393;28;20260;-63
2024/02/02 05:08:07;;;;;;;14.95;11.55;;;;;;;;;;5085430;28;20077;-60
2024/02/02 05:10:33;;;;;;;16.75;11.32;;;;;;;;;;5082114;28;20209;-60
2024/02/02 05:13:00;;;;;;;19.85;11.45;;;;;;;;;;5085482;28;20024;-64
2024/02/02 05:15:27;;;;;;;15.02;11.32;;;;;;;;;;5085283;28;20024;-64
2024/02/02 05:17:53;;;;;;;14.93;10.63;;;;;;;;;;5082719;28;20062;-62
2024/02/02 05:20:20;;;;;;;15.57;10.77;;;;;;;;;;5081203;28;20024;-61
2024/02/02 05:22:46;;;;;;;16.08;11.15;;;;;;;;;;5082251;28;20020;-61
2024/02/02 05:25:13;;;;;;;15.98;11.05;;;;;;;;;;5082590;28;20024;-59
2024/02/02 05:27:39;;;;;;;17.10;11.23;;;;;;;;;;5080773;28;20024;-65
2024/02/02 05:30:06;;;;;;;15.93;10.77;;;;;;;;;;5084086;28;20025;-59
2024/02/02 05:32:33;;;;;;;17.13;10.65;;;;;;;;;;5084809;28;20019;-63
2024/02/02 05:34:59;;;;;;;13.40;10.60;;;;;;;;;;5084894;28;20101;-64
2024/02/02 05:37:26;;;;;;;12.88;10.95;;;;;;;;;;5084798;28;20134;-64
2024/02/02 05:39:53;;;;;;;14.70;11.27;;;;;;;;;;5081864;28;20020;-60
2024/02/02 05:42:20;;;;;;;16.95;11.35;;;;;;;;;;5084655;28;20016;-57
2024/02/02 05:44:46;;;;;;;15.57;10.88;;;;;;;;;;5084482;28;20036;-65
2024/02/02 05:47:13;;;;;;;14.75;11.23;;;;;;;;;;5081783;28;20031;-66
2024/02/02 05:49:39;;;;;;;16.95;10.73;;;;;;;;;;5084590;28;20027;-64
2024/02/02 05:52:06;;;;;;;17.08;11.80;;;;;;;;;;5084473;28;20110;-62
2024/02/02 05:54:35;;;;;;;16.33;11.88;;;;;;;;;;5081517;28;20020;-63
2024/02/02 05:57:01;;;;;;;19.45;11.50;;;;;;;;;;5084457;28;20080;-64
2024/02/02 05:59:28;;;;;;;17.33;11.98;;;;;;;;;;5081956;28;20104;-64
2024/02/02 06:01:55;;;;;;;14.02;11.20;;;;;;;;;;5079742;28;20048;-65
2024/02/02 06:04:21;;;;;;;15.40;11.38;;;;;;;;;;5085099;28;20317;-65
2024/02/02 06:06:48;;;;;;;16.23;11.48;;;;;;;;;;5083475;28;20249;-66
2024/02/02 06:09:14;;;;;;;14.20;11.70;;;;;;;;;;5084844;28;20231;-64
2024/02/02 06:11:41;;;;;;;16.90;12.27;;;;;;;;;;5084600;28;20020;-62
2024/02/02 06:14:08;;;;;;;14.50;11.88;;;;;;;;;;5084923;28;20036;-65
2024/02/02 06:16:34;;;;;;;18.17;12.20;;;;;;;;;;5084344;28;20087;-65
2024/02/02 06:19:01;;;;;;;16.25;12.40;;;;;;;;;;5084884;28;20036;-65
2024/02/02 06:21:27;;;;;;;15.32;11.65;;;;;;;;;;5084458;28;20024;-61
2024/02/02 06:23:54;;;;;;;16.95;12.20;;;;;;;;;;5084537;28;20421;-60
2024/02/02 06:26:21;;;;;;;15.57;11.82;;;;;;;;;;5084307;28;20212;-63
2024/02/02 06:28:47;;;;;;;13.88;11.75;;;;;;;;;;5084692;28;20031;-62
2024/02/02 06:31:14;;;;;;;16.30;11.95;;;;;;;;;;5084103;28;20013;-63
2024/02/02 06:33:40;;;;;;;16.55;13.05;;;;;;;;;;5077392;28;20024;-60
2024/02/02 06:36:07;;;;;;;17.48;11.90;;;;;;;;;;5084324;28;20020;-63
2024/02/02 06:38:34;;;;;;;17.73;12.10;;;;;;;;;;5083947;28;20028;-63
2024/02/02 06:41:01;;;;;;;15.18;12.85;;;;;;;;;;5084112;28;20320;-63
2024/02/02 06:43:27;;;;;;;14.45;12.27;;;;;;;;;;5084024;28;20055;-62
2024/02/02 06:45:54;;;;;;;17.05;12.30;;;;;;;;;;5084005;28;20024;-65
2024/02/02 06:48:21;;;;;;;16.65;12.32;;;;;;;;;;5084326;28;20036;-61
2024/02/02 06:50:48;;;;;;;15.02;11.90;;;;;;;;;;5084015;28;20073;-62
2024/02/02 06:53:15;;;;;;;16.90;12.90;;;;;;;;;;5078413;28;20028;-62
2024/02/02 06:55:43;;;;;;;15.45;13.18;;;;;;;;;;5078494;28;20036;-64
2024/02/02 06:58:35;;;;;;;16.90;13.15;;;;;;;;;;5084101;28;20062;-62
2024/02/02 07:01:02;;;;;;;;;;;;;;;;;;5075477;28;20108;-62
2024/02/02 07:03:31;;;;;;;16.08;12.80;;;;;;;;;;5075332;28;20134;-61
2024/02/02 07:05:58;;;;;;;16.33;13.10;;;;;;;;;;5083700;28;20311;-61
2024/02/02 07:08:25;;;;;;;20.35;13.98;;;;;;;;;;5084127;28;20031;-61
2024/02/02 07:11:07;;;;;;;23.58;14.38;;;;;;;;;;5083835;28;20017;-63
2024/02/02 07:13:40;;;;;;;18.75;13.77;;;;;;;;;;5084983;28;20304;-63
2024/02/02 07:16:12;;;;;;;19.02;13.30;;;;;;;;;;5087972;28;20036;-63
2024/02/02 07:18:42;;;;;;;18.10;13.75;;;;;;;;;;5088066;28;20028;-62
2024/02/02 07:21:12;;;;;;;19.13;14.05;;;;;;;;;;5087868;28;20013;-62
2024/02/02 07:23:39;;;;;;;16.95;13.57;;;;;;;;;;5087776;28;20025;-63
2024/02/02 07:26:07;;;;;;;17.55;14.32;;;;;;;;;;5087546;28;20339;-62
2024/02/02 07:28:38;;;;;;;15.15;13.57;;;;;;;;;;5088033;28;20032;-62
2024/02/02 07:31:08;;;;;;;18.58;13.57;;;;;;;;;;5087656;28;20021;-60
2024/02/02 07:33:40;;;;;;;20.17;13.50;;;;;;;;;;5087890;28;20027;-60
2024/02/02 07:36:06;;;;;;;;;;;;;;;;;;5087986;28;20020;-63
2024/02/02 07:38:54;;;;;;;13.90;12.18;;;;;;;;;;5087637;28;19909;-63
2024/02/02 07:41:25;;;;;;;20.23;13.35;;;;;;;;;;5087541;28;20208;-63
2024/02/02 07:43:56;;;;;;;17.85;12.90;;;;;;;;;;5087116;28;20044;-61
2024/02/02 07:46:23;;;;;;;17.20;12.82;;;;;;;;;;5087447;28;20201;-61
2024/02/02 07:48:50;;;;;;;22.88;13.77;;;;;;;;;;5087669;28;20360;-62
2024/02/02 07:51:22;;;;;;;26.98;14.95;;;;;;;;;;5087042;28;20021;-63
2024/02/02 07:53:49;;;;;;;24.73;14.85;;;;;;;;;;5087557;28;20020;-65
2024/02/02 07:56:17;;;;;;;27.48;14.38;;;;;;;;;;5087187;28;20020;-64
2024/02/02 07:58:44;;;;;;;26.45;15.85;;;;;;;;;;5087223;28;20024;-64
2024/02/02 08:01:11;;;;;;;24.25;15.60;;;;;;;;;;5087078;28;20085;-64
2024/02/02 08:03:38;;;;;;;24.52;15.73;;;;;;;;;;5087359;28;20084;-65
2024/02/02 08:06:05;;;;;;;23.80;14.25;;;;;;;;;;5086788;28;20043;-64
2024/02/02 08:08:32;;;;;;;20.73;13.68;;;;;;;;;;5086974;28;20066;-64
2024/02/02 08:11:02;;;;;;;20.30;14.30;;;;;;;;;;5086934;28;20016;-64
2024/02/02 08:13:30;;;;;;;22.55;14.55;;;;;;;;;;5086631;28;20094;-65
2024/02/02 08:15:57;;;;;;;22.13;14.40;;;;;;;;;;5086856;28;20020;-64
2024/02/02 08:18:23;;;;;;;19.63;13.63;;;;;;;;;;5087017;28;20046;-65
2024/02/02 08:20:50;;;;;;;19.30;13.48;;;;;;;;;;5086618;28;20320;-64
2024/02/02 08:23:17;;;;;;;19.02;13.95;;;;;;;;;;5086929;28;20316;-63
2024/02/02 08:25:43;;;;;;;20.17;14.20;;;;;;;;;;5085533;28;20020;-64
2024/02/02 08:28:10;;;;;;;17.98;13.75;;;;;;;;;;5086587;28;20117;-64
2024/02/02 08:30:36;;;;;;;23.15;14.35;;;;;;;;;;5086627;28;20084;-64
2024/02/02 08:33:03;;;;;;;16.80;13.23;;;;;;;;;;5086544;28;20020;-64
2024/02/02 08:35:30;;;;;;;17.40;13.88;;;;;;;;;;5086237;28;20058;-61
2024/02/02 08:37:57;;;;;;;20.35;13.60;;;;;;;;;;5086508;28;20339;-64
2024/02/02 08:40:42;;;;;;;20.33;13.90;;;;;;;;;;5086314;28;20069;-63
2024/02/02 08:43:12;;;;;;;22.75;13.35;;;;;;;;;;5086262;28;20071;-63
2024/02/02 08:45:42;;;;;;;21.25;13.73;;;;;;;;;;5086269;28;20023;-62
2024/02/02 08:48:34;;;;;;;19.02;12.82;;;;;;;;;;5086271;28;20016;-63
2024/02/02 08:51:01;;;;;;;19.30;13.55;;;;;;;;;;5062981;28;20220;-63
2024/02/02 08:53:28;;;;;;;25.25;14.18;;;;;;;;;;5085912;28;20025;-63
2024/02/02 08:55:59;;;;;;;18.73;12.85;;;;;;;;;;5086089;28;20020;-63
2024/02/02 08:58:34;;;;;;;19.83;13.18;;;;;;;;;;5086216;28;20057;-63
2024/02/02 09:01:02;;;;;;;19.75;12.98;;;;;;;;;;5086056;28;20066;-66
2024/02/02 09:03:45;;;;;;;21.13;13.43;;;;;;;;;;5086254;28;20360;-66
2024/02/02 09:06:17;;;;;;;18.48;12.45;;;;;;;;;;5085701;28;20020;-65
2024/02/02 09:08:44;;;;;;;20.45;12.88;;;;;;;;;;5086176;28;20025;-69
2024/02/02 09:11:17;;;;;;;19.98;13.70;;;;;;;;;;5085672;28;20021;-68
2024/02/02 09:13:45;;;;;;;23.83;13.10;;;;;;;;;;5085695;28;20031;-66
2024/02/02 09:16:20;;;;;;;20.92;13.18;;;;;;;;;;5085668;28;20020;-65
2024/02/02 09:18:56;;;;;;;22.15;13.48;;;;;;;;;;5085789;28;20048;-64
2024/02/02 09:21:27;;;;;;;20.55;13.30;;;;;;;;;;5085614;28;20021;-68
2024/02/02 09:23:54;;;;;;;20.63;13.48;;;;;;;;;;5085665;28;20092;-64
2024/02/02 09:26:27;;;;;;;20.50;13.30;;;;;;;;;;5085449;28;20017;-62
2024/02/02 09:28:54;;;;;;;20.33;13.48;;;;;;;;;;5085761;28;20029;-61
2024/02/02 09:31:21;;;;;;;21.05;13.38;;;;;;;;;;5085277;28;20312;-62
2024/02/02 09:33:51;;;;;;;19.75;12.75;;;;;;;;;;5085299;28;20051;-66
2024/02/02 09:36:19;;;;;;;16.80;12.40;;;;;;;;;;5085141;28;20031;-62
2024/02/02 09:38:55;;;;;;;22.08;13.38;;;;;;;;;;5085368;28;20067;-63
2024/02/02 09:41:29;;;;;;;25.75;13.35;;;;;;;;;;5085107;28;20021;-64
2024/02/02 09:44:08;;;;;;;27.25;14.30;;;;;;;;;;5084853;28;20071;-64
2024/02/02 09:46:58;;;;;;;22.90;12.88;;;;;;;;;;5085155;28;20016;-64
2024/02/02 09:49:26;;;;;;;25.98;14.43;;;;;;;;;;5085473;28;20516;-64
2024/02/02 09:51:55;;;;;;;24.65;13.93;;;;;;;;;;5084936;28;20012;-60
2024/02/02 09:54:28;;;;;;;20.60;12.65;;;;;;;;;;5085238;28;20021;-64
2024/02/02 09:57:01;;;;;;;23.95;13.68;;;;;;;;;;5084978;28;20035;-65
2024/02/02 10:00:06;;;;;;;20.77;13.10;;;;;;;;;;5085283;28;20029;-66
2024/02/02 10:02:45;;;;;;;27.15;13.20;;;;;;;;;;5023187;28;20026;-66
2024/02/02 10:05:44;;;;;;;22.85;13.13;;;;;;;;;;5023153;28;20057;-67
2024/02/02 10:08:24;;;;;;;20.55;12.55;;;;;;;;;;5049923;28;20028;-62
2024/02/02 10:11:09;;;;;;;20.88;12.02;;;;;;;;;;5084629;28;20016;-66
2024/02/02 10:13:38;;;;;;;21.83;12.55;;;;;;;;;;5084407;28;20016;-65
2024/02/02 10:16:11;;;;;;;21.30;12.55;;;;;;;;;;5084765;28;20339;-64
2024/02/02 10:18:42;;;;;;;26.00;13.65;;;;;;;;;;5084627;28;20028;-63
2024/02/02 10:21:24;;;;;;;25.00;13.40;;;;;;;;;;5084403;28;20024;-60
2024/02/02 10:23:51;;;;;;;22.98;12.88;;;;;;;;;;5084579;28;20091;-63
2024/02/02 10:26:18;;;;;;;21.98;12.23;;;;;;;;;;5084374;28;20070;-62
2024/02/02 10:28:56;;;;;;;21.63;12.23;;;;;;;;;;5084678;28;20327;-63
2024/02/02 10:31:26;;;;;;;29.70;22.95;;;;;;;;;;5084113;28;20038;-60
2024/02/02 10:33:53;;;;;;;24.95;17.08;;;;;;;;;;5084207;28;20020;-61
2024/02/02 10:36:29;;;;;;;26.65;17.85;;;;;;;;;;5084191;28;20021;-63
2024/02/02 10:39:17;;;;;;;24.42;17.77;;;;;;;;;;5084099;28;20012;-64
2024/02/02 10:41:58;;;;;;;24.45;15.25;;;;;;;;;;5084209;28;20019;-63
2024/02/02 10:44:31;;;;;;;23.25;14.65;;;;;;;;;;5084089;28;20047;-64
2024/02/02 10:47:09;;;;;;;26.80;14.65;;;;;;;;;;5083641;28;20048;-65
2024/02/02 10:49:40;;;;;;;21.83;14.18;;;;;;;;;;5084521;28;20204;-64
2024/02/02 10:52:19;;;;;;;24.83;14.23;;;;;;;;;;5083956;28;20047;-64
2024/02/02 10:55:07;;;;;;;23.48;14.10;;;;;;;;;;5084048;28;20025;-63
2024/02/02 10:57:43;;;;;;;25.58;13.18;;;;;;;;;;5083822;28;20063;-64
2024/02/02 11:00:18;;;;;;;23.60;13.25;;;;;;;;;;5084188;28;20031;-64
2024/02/02 11:02:51;;;;;;;21.52;13.02;;;;;;;;;;5084179;28;20199;-63
2024/02/02 11:05:27;;;;;;;20.95;12.32;;;;;;;;;;5084075;28;20095;-64
2024/02/02 11:07:56;;;;;;;24.55;12.85;;;;;;;;;;5083938;28;20188;-64
2024/02/02 11:10:27;;;;;;;21.90;12.32;;;;;;;;;;5083710;28;20024;-65
2024/02/02 11:13:10;;;;;;;25.70;12.75;;;;;;;;;;5083922;28;20305;-63
2024/02/02 11:15:36;;;;;;;21.75;12.75;;;;;;;;;;5083670;28;20035;-67
2024/02/02 11:18:21;;;;;;;20.55;13.43;;;;;;;;;;5083942;28;20023;-64
2024/02/02 11:21:04;;;;;;;27.92;13.38;;;;;;;;;;5081709;28;20067;-61
2024/02/02 11:23:31;;;;;;;23.27;13.70;;;;;;;;;;5080516;28;20032;-64
2024/02/02 11:26:07;;;;;;;23.60;14.27;;;;;;;;;;5083383;28;20097;-64
2024/02/02 11:28:37;;;;;;;25.00;14.80;;;;;;;;;;5082863;28;20052;-66
2024/02/02 11:31:03;;;;;;;29.15;16.00;;;;;;;;;;5083550;28;20036;-63
2024/02/02 11:33:33;;;;;;;32.05;14.98;;;;;;;;;;5083702;28;20025;-64
2024/02/02 11:36:05;;;;;;;28.50;14.35;;;;;;;;;;5083507;28;20028;-63
2024/02/02 11:38:31;;;;;;;;;;;;;;;;;;5083904;28;20040;-64
2024/02/02 11:40:58;;;;;;;24.15;14.98;;;;;;;;;;5082807;28;19993;-64
2024/02/02 11:43:27;;;;;;;31.58;14.48;;;;;;;;;;5083552;28;20056;-63
2024/02/02 11:45:55;;;;;;;37.22;15.80;;;;;;;;;;5083234;28;20043;-64
2024/02/02 11:48:34;;;;;;;75.65;20.98;;;;;;;;;;5083742;28;20067;-64
2024/02/02 11:51:02;;;;;;;150.50;29.02;;;;;;;;;;5083395;28;20020;-64
2024/02/02 11:53:37;;;;;;;134.15;26.17;;;;;;;;;;5083508;28;20099;-64
2024/02/02 11:56:06;;;;;;;96.55;23.90;;;;;;;;;;5083395;28;20020;-64
2024/02/02 11:58:36;;;;;;;84.57;20.83;;;;;;;;;;5083998;28;20096;-65
2024/02/02 12:01:10;;;;;;;74.07;18.98;;;;;;;;;;5087074;28;20020;-64
2024/02/02 12:03:39;;;;;;;73.70;20.70;;;;;;;;;;5087360;28;20301;-63
2024/02/02 12:06:17;;;;;;;130.23;26.73;;;;;;;;;;5086760;28;20375;-63
2024/02/02 12:08:59;;;;;;;180.80;33.00;;;;;;;;;;5086848;28;20024;-66
2024/02/02 12:11:29;;;;;;;202.68;34.72;;;;;;;;;;5086756;28;20071;-66
2024/02/02 12:13:58;;;;;;;198.82;34.75;;;;;;;;;;5087185;28;20028;-65
2024/02/02 12:16:24;;;;;;;189.00;33.85;;;;;;;;;;5086757;28;20016;-65
2024/02/02 12:18:51;;;;;;;150.32;27.88;;;;;;;;;;5087158;28;20048;-65
2024/02/02 12:21:21;;;;;;;98.15;23.75;;;;;;;;;;5086734;28;20024;-65
2024/02/02 12:23:48;;;;;;;92.38;22.85;;;;;;;;;;5085508;28;20055;-64
2024/02/02 12:26:15;;;;;;;74.32;21.15;;;;;;;;;;5086513;28;20032;-66
2024/02/02 12:28:42;;;;;;;80.38;22.10;;;;;;;;;;5086905;28;20035;-64
2024/02/02 12:31:09;;;;;;;60.25;19.60;;;;;;;;;;5086472;28;20309;-66
2024/02/02 12:33:35;;;;;;;54.28;18.50;;;;;;;;;;5086428;28;20051;-67
2024/02/02 12:36:02;;;;;;;61.83;18.48;;;;;;;;;;5086508;28;20189;-66
2024/02/02 12:38:29;;;;;;;58.83;19.38;;;;;;;;;;5086691;28;20035;-64
2024/02/02 12:40:56;;;;;;;45.45;17.73;;;;;;;;;;5086177;28;20251;-63
2024/02/02 12:43:26;;;;;;;39.95;17.20;;;;;;;;;;5086352;28;20043;-66
2024/02/02 12:45:53;;;;;;;32.45;16.25;;;;;;;;;;5086192;28;20246;-64
2024/02/02 12:48:20;;;;;;;36.35;16.98;;;;;;;;;;5085910;28;20032;-65
2024/02/02 12:50:51;;;;;;;35.13;16.83;;;;;;;;;;5085440;28;20024;-67
2024/02/02 12:53:19;;;;;;;38.10;17.45;;;;;;;;;;5065963;28;20020;-65
2024/02/02 12:55:46;;;;;;;39.80;17.85;;;;;;;;;;5064953;28;20028;-65
2024/02/02 12:58:13;;;;;;;29.40;16.77;;;;;;;;;;5072887;28;20021;-63
2024/02/02 13:00:39;;;;;;;30.73;16.08;;;;;;;;;;5086175;28;20036;-66
2024/02/02 13:03:06;;;;;;;33.00;16.17;;;;;;;;;;5067086;28;20027;-65
2024/02/02 13:05:32;;;;;;;28.90;16.17;;;;;;;;;;5065674;28;20033;-63
2024/02/02 13:07:59;;;;;;;29.77;16.88;;;;;;;;;;5065763;28;20055;-66
2024/02/02 13:10:49;;;;;;;27.55;17.17;;;;;;;;;;5065582;28;20039;-67
2024/02/02 13:13:19;;;;;;;29.25;17.75;;;;;;;;;;5060393;28;20048;-64
2024/02/02 13:15:46;;;;;;;33.28;17.92;;;;;;;;;;5066034;28;20055;-65
2024/02/02 13:18:14;;;;;;;31.33;17.17;;;;;;;;;;5065644;28;20063;-65
2024/02/02 13:20:45;;;;;;;27.67;17.00;;;;;;;;;;5065686;28;20021;-66
2024/02/02 13:23:20;;;;;;;29.80;17.67;;;;;;;;;;5065407;28;20016;-64
2024/02/02 13:25:59;;;;;;;25.88;17.00;;;;;;;;;;5065667;28;20313;-64
2024/02/02 13:28:26;;;;;;;24.58;17.13;;;;;;;;;;5065458;28;20260;-64
2024/02/02 13:30:54;;;;;;;25.63;17.23;;;;;;;;;;5065717;28;20028;-64
2024/02/02 13:33:20;;;;;;;32.05;17.95;;;;;;;;;;5065114;28;20040;-63
2024/02/02 13:35:50;;;;;;;26.75;16.42;;;;;;;;;;5065624;28;20029;-63
2024/02/02 13:38:17;;;;;;;24.70;16.05;;;;;;;;;;5065131;28;20059;-64
2024/02/02 13:40:46;;;;;;;30.23;16.65;;;;;;;;;;5065345;28;20092;-63
2024/02/02 13:43:13;;;;;;;29.50;16.75;;;;;;;;;;5067236;28;20021;-63
2024/02/02 13:45:40;;;;;;;30.80;17.73;;;;;;;;;;5085354;28;20087;-64
2024/02/02 13:48:12;;;;;;;76.43;23.15;;;;;;;;;;5084934;28;20009;-64
2024/02/02 13:50:51;;;;;;;72.67;27.10;;;;;;;;;;5084966;28;20248;-65
2024/02/02 13:53:24;;;;;;;53.40;23.33;;;;;;;;;;5084738;28;20320;-63
2024/02/02 13:55:51;;;;;;;40.65;20.92;;;;;;;;;;5085278;28;20031;-64
2024/02/02 13:58:18;;;;;;;58.38;21.05;;;;;;;;;;5084824;28;20017;-64
2024/02/02 14:00:45;;;;;;;64.53;21.70;;;;;;;;;;5085096;28;20039;-67
2024/02/02 14:03:12;;;;;;;43.42;21.17;;;;;;;;;;5084815;28;20058;-66
2024/02/02 14:05:40;;;;;;;41.35;19.55;;;;;;;;;;5084952;28;20304;-64
2024/02/02 14:08:07;;;;;;;37.22;18.40;;;;;;;;;;5084533;28;20053;-66
2024/02/02 14:10:46;;;;;;;36.60;18.88;;;;;;;;;;5084950;28;20092;-65
2024/02/02 14:13:19;;;;;;;31.27;17.45;;;;;;;;;;5084476;28;20017;-65
2024/02/02 14:15:48;;;;;;;40.92;18.05;;;;;;;;;;5084796;28;20146;-65
2024/02/02 14:18:16;;;;;;;36.97;17.83;;;;;;;;;;5084972;28;20073;-64
2024/02/02 14:20:43;;;;;;;36.10;17.60;;;;;;;;;;5084599;28;20028;-66
2024/02/02 14:23:13;;;;;;;29.92;17.02;;;;;;;;;;5083646;28;20038;-65
2024/02/02 14:25:40;;;;;;;26.63;16.48;;;;;;;;;;5084623;28;20208;-64
2024/02/02 14:28:20;;;;;;;25.17;16.08;;;;;;;;;;5084193;28;20020;-65
2024/02/02 14:30:47;;;;;;;25.10;16.10;;;;;;;;;;5082453;28;20028;-63